Meteo Giornale » Osservazioni meteo Italia » Capo Bellavista

ore: 11:55 - Osservazioni Meteo Capo Bellavista
Lat. 39° 56' N Lon. 9° 43' E Alt. 138 metri s.l.m.

sereno Europe/Rome

29 °C

Sereno

Temp. 24 Ore

23 °C

35 °C

Nord/NOvest

57.3 Km/h

Dew point 6 °C

Umidità 23 %

Visibilità  10 Km

Il sole sorge alle ore 06:12

Il sole tramonta alle ore 20:42

Data e Ora Cielo e Fenomeni T °C DP °C Um. % Pres. hPa Vis. km Vento km/h
Oggi h: 11:55 sereno Sereno 29 6 23 1005 10 N/NO 57.3
Oggi h: 10:55 sereno Sereno 28 7 26 1006 10 N/NO 48.1
Oggi h: 09:55 sereno Sereno 27 5 24 1005 10 NO 37
Oggi h: 08:55 sereno Sereno 26 6 27 1006 10 N/NO 37
Oggi h: 07:55 sereno Sereno 24 8 35 1005 10 NO 33.3
Oggi h: 06:55 sereno Sereno 23 8 38 1005 10 NO 42.6
Oggi h: 05:55 sereno Sereno 24 8 35 1006 10 NO 35.2
Oggi h: 04:55 sereno Sereno 24 9 38 1007 10 NO 33.3
Oggi h: 03:55 sereno Sereno 24 9 38 1007 10 NO 33.3
Oggi h: 02:55 sereno Sereno 25 9 36 1008 10 NO 33.3
Oggi h: 01:55 sereno Sereno 25 9 36 1009 10 NO 37
Oggi h: 00:55 sereno Sereno 26 9 34 1010 10 O/NO 22.2
Ieri h: 23:55 sereno Sereno 26 8 31 1010 10 N/NO 25.9
Ieri h: 22:55 sereno Sereno 26 8 31 1010 10 NO 35.2
Ieri h: 21:55 sereno Sereno 26 8 31 1010 10 NO 35.2
Ieri h: 20:55 sereno Sereno 28 6 24 1009 10 N/NO 14.8
Ieri h: 19:55 sereno Sereno 30 8 25 1009 10 NO 33.3
Ieri h: 18:55 sereno Sereno 32 6 19 1008 10 NO 38.8
Ieri h: 17:55 sereno Sereno 31 22 58 1008 10 N/NO 16.7
Ieri h: 16:55 sereno Sereno 29 22 66 1008 10 S 16.7
Ieri h: 15:55 sereno Sereno 31 22 58 1009 10 SE 22.2
Ieri h: 14:55 sereno Sereno 32 20 49 1010 10 S 9.3
Ieri h: 13:55 sereno Sereno 33 22 52 1010 10 S 9.3
Ieri h: 12:55 sereno Sereno 35 21 44 1010 10 N 5.5